TimeEDT,TemperatureF,Dew PointF,Humidity,Sea Level PressureIn,VisibilityMPH,Wind Direction,Wind SpeedMPH,Gust SpeedMPH,PrecipitationIn,Events,Conditions,WindDirDegrees,DateUTC
12:10 AM,33.8,33.8,100,29.97,10.0,WSW,5.8,-,0.00,,Overcast,240,2013-10-24 04:10:00
12:30 AM,33.8,32.0,93,29.97,10.0,WSW,5.8,-,0.00,,Scattered Clouds,250,2013-10-24 04:30:00
12:50 AM,33.8,32.0,93,29.97,10.0,West,4.6,-,0.00,,Mostly Cloudy,260,2013-10-24 04:50:00
1:10 AM,33.8,32.0,93,29.97,10.0,Calm,Calm,-,0.00,,Mostly Cloudy,0,2013-10-24 05:10:00
1:30 AM,33.8,32.0,93,29.97,10.0,Calm,Calm,-,0.00,,Mostly Cloudy,0,2013-10-24 05:30:00
1:50 AM,33.8,32.0,93,29.97,10.0,Calm,Calm,-,0.00,,Overcast,0,2013-10-24 05:50:00
2:10 AM,32.0,32.0,100,29.97,10.0,Calm,Calm,-,0.00,,Mostly Cloudy,0,2013-10-24 06:10:00
2:30 AM,32.0,32.0,100,29.97,10.0,Calm,Calm,-,0.00,,Mostly Cloudy,0,2013-10-24 06:30:00
2:50 AM,32.0,32.0,100,29.97,10.0,Calm,Calm,-,0.00,,Partly Cloudy,0,2013-10-24 06:50:00
3:10 AM,32.0,32.0,100,29.98,10.0,Calm,Calm,-,0.00,,Partly Cloudy,0,2013-10-24 07:10:00
3:30 AM,32.0,32.0,100,29.98,10.0,SSW,4.6,-,0.00,,Partly Cloudy,210,2013-10-24 07:30:00
3:50 AM,32.0,32.0,100,29.98,10.0,SW,4.6,-,0.00,,Clear,220,2013-10-24 07:50:00
4:10 AM,32.0,32.0,100,29.98,10.0,SW,3.5,-,0.00,,Clear,220,2013-10-24 08:10:00
4:30 AM,32.0,32.0,100,29.98,10.0,SW,5.8,-,0.00,,Clear,220,2013-10-24 08:30:00
4:50 AM,32.0,32.0,100,29.98,10.0,SW,4.6,-,0.00,,Clear,220,2013-10-24 08:50:00
5:10 AM,30.2,30.2,100,29.98,10.0,SSW,4.6,-,0.00,,Clear,210,2013-10-24 09:10:00
5:30 AM,-9999,-9999,N/A,29.99,10.0,SW,3.5,-,0.00,,Clear,220,2013-10-24 09:30:00
5:50 AM,30.2,30.2,100,29.99,10.0,SSW,3.5,-,0.00,,Clear,200,2013-10-24 09:50:00
6:10 AM,30.2,30.2,100,29.99,10.0,SSW,4.6,-,0.00,,Clear,210,2013-10-24 10:10:00
6:30 AM,32.0,32.0,100,29.99,10.0,SSW,3.5,-,0.00,,Scattered Clouds,200,2013-10-24 10:30:00
6:50 AM,32.0,32.0,100,30.00,10.0,SSW,3.5,-,0.00,,Scattered Clouds,200,2013-10-24 10:50:00
7:10 AM,32.0,32.0,100,30.00,10.0,SSW,4.6,-,0.00,,Scattered Clouds,200,2013-10-24 11:10:00
7:30 AM,32.0,32.0,100,30.01,10.0,SSW,4.6,-,0.00,,Mostly Cloudy,210,2013-10-24 11:30:00
7:50 AM,32.0,32.0,100,30.01,10.0,SW,5.8,-,0.00,,Mostly Cloudy,220,2013-10-24 11:50:00
8:10 AM,32.0,32.0,100,30.01,9.0,SW,5.8,-,0.00,,Mostly Cloudy,220,2013-10-24 12:10:00
8:30 AM,33.8,33.8,100,30.01,9.0,SW,4.6,-,0.00,,Scattered Clouds,220,2013-10-24 12:30:00
8:50 AM,33.8,33.8,100,30.02,9.0,SW,6.9,-,0.00,,Scattered Clouds,230,2013-10-24 12:50:00
9:10 AM,33.8,33.8,100,30.03,10.0,SW,6.9,-,0.00,,Scattered Clouds,230,2013-10-24 13:10:00
9:30 AM,35.6,33.8,93,30.03,10.0,WSW,9.2,-,0.00,,Partly Cloudy,250,2013-10-24 13:30:00
9:50 AM,35.6,33.8,93,30.04,10.0,West,9.2,-,0.00,,Scattered Clouds,260,2013-10-24 13:50:00
10:10 AM,37.4,33.8,87,30.04,10.0,West,12.7,17.3,0.00,,Partly Cloudy,260,2013-10-24 14:10:00
10:30 AM,37.4,32.0,81,30.05,10.0,West,12.7,-,0.00,,Partly Cloudy,260,2013-10-24 14:30:00
10:50 AM,39.2,32.0,75,30.05,10.0,West,11.5,16.1,0.00,,Partly Cloudy,270,2013-10-24 14:50:00
11:10 AM,39.2,32.0,75,30.05,10.0,West,11.5,18.4,0.00,,Partly Cloudy,260,2013-10-24 15:10:00
11:30 AM,39.2,30.2,70,30.05,10.0,West,11.5,20.7,0.00,,Partly Cloudy,280,2013-10-24 15:30:00
11:50 AM,41.0,30.2,65,30.05,10.0,West,13.8,-,0.00,,Scattered Clouds,260,2013-10-24 15:50:00
12:10 PM,41.0,30.2,65,30.06,10.0,West,9.2,-,0.00,,Mostly Cloudy,280,2013-10-24 16:10:00
12:30 PM,39.2,26.6,61,30.06,10.0,West,11.5,-,0.00,,Scattered Clouds,270,2013-10-24 16:30:00
12:50 PM,39.2,28.4,65,30.06,10.0,West,10.4,-,0.00,,Mostly Cloudy,280,2013-10-24 16:50:00
1:10 PM,41.0,28.4,61,30.06,10.0,West,11.5,-,0.00,,Scattered Clouds,280,2013-10-24 17:10:00
1:30 PM,41.0,28.4,61,30.06,10.0,West,9.2,20.7,0.00,,Mostly Cloudy,270,2013-10-24 17:30:00
1:50 PM,39.2,28.4,65,30.05,10.0,West,9.2,-,0.00,,Mostly Cloudy,280,2013-10-24 17:50:00
2:10 PM,39.2,28.4,65,30.05,10.0,West,12.7,17.3,0.00,,Scattered Clouds,260,2013-10-24 18:10:00
2:30 PM,42.8,28.4,57,30.05,10.0,West,11.5,19.6,0.00,,Scattered Clouds,280,2013-10-24 18:30:00
2:50 PM,39.2,26.6,61,30.05,10.0,West,15.0,-,0.00,,Scattered Clouds,260,2013-10-24 18:50:00
3:10 PM,42.8,26.6,53,30.06,10.0,West,11.5,19.6,0.00,,Clear,270,2013-10-24 19:10:00
3:30 PM,42.8,28.4,57,30.06,10.0,WSW,9.2,-,0.00,,Clear,240,2013-10-24 19:30:00
3:50 PM,41.0,26.6,57,30.06,10.0,West,5.8,-,0.00,,Clear,280,2013-10-24 19:50:00
4:10 PM,42.8,26.6,53,30.07,10.0,West,9.2,-,0.00,,Partly Cloudy,280,2013-10-24 20:10:00
4:30 PM,42.8,28.4,57,30.07,10.0,WNW,13.8,19.6,0.00,,Mostly Cloudy,300,2013-10-24 20:30:00
4:50 PM,39.2,28.4,65,30.08,9.0,NW,12.7,18.4,0.00,,Mostly Cloudy,320,2013-10-24 20:50:00
5:10 PM,39.2,32.0,75,30.09,10.0,NNW,9.2,-,0.00,,Mostly Cloudy,330,2013-10-24 21:10:00
5:30 PM,39.2,30.2,70,30.10,10.0,West,8.1,-,0.00,,Scattered Clouds,280,2013-10-24 21:30:00
5:50 PM,39.2,30.2,70,30.10,10.0,WNW,10.4,-,0.00,,Mostly Cloudy,300,2013-10-24 21:50:00
6:10 PM,37.4,32.0,81,30.11,10.0,WNW,9.2,17.3,0.00,,Overcast,290,2013-10-24 22:10:00
6:30 PM,37.4,32.0,81,30.12,10.0,West,5.8,-,0.00,,Mostly Cloudy,280,2013-10-24 22:30:00
6:50 PM,37.4,32.0,81,30.13,10.0,West,4.6,-,0.00,,Mostly Cloudy,280,2013-10-24 22:50:00
7:10 PM,35.6,32.0,87,30.13,10.0,West,3.5,-,0.00,,Overcast,280,2013-10-24 23:10:00
7:30 PM,35.6,32.0,87,30.14,10.0,West,3.5,-,0.00,,Overcast,280,2013-10-24 23:30:00
7:50 PM,35.6,32.0,87,30.15,10.0,West,3.5,-,0.00,,Overcast,280,2013-10-24 23:50:00
8:10 PM,33.8,32.0,93,30.15,10.0,West,3.5,-,0.00,,Scattered Clouds,270,2013-10-25 00:10:00
8:30 PM,33.8,32.0,93,30.16,10.0,West,3.5,-,0.00,,Clear,280,2013-10-25 00:30:00
8:50 PM,33.8,32.0,93,30.16,10.0,West,3.5,-,0.00,,Clear,280,2013-10-25 00:50:00
9:10 PM,32.0,30.2,93,30.16,10.0,West,4.6,-,0.00,,Clear,270,2013-10-25 01:10:00
9:30 PM,32.0,30.2,93,30.17,10.0,West,3.5,-,0.00,,Clear,270,2013-10-25 01:30:00
9:50 PM,32.0,30.2,93,30.18,10.0,West,3.5,-,0.00,,Clear,270,2013-10-25 01:50:00
10:10 PM,32.0,30.2,93,30.18,10.0,Calm,Calm,-,0.00,,Clear,0,2013-10-25 02:10:00
10:30 PM,32.0,30.2,93,30.19,10.0,Calm,Calm,-,0.00,,Clear,0,2013-10-25 02:30:00
10:50 PM,32.0,30.2,93,30.19,10.0,Calm,Calm,-,0.00,,Clear,0,2013-10-25 02:50:00
11:10 PM,32.0,30.2,93,30.19,10.0,WSW,3.5,-,0.00,,Clear,240,2013-10-25 03:10:00
11:30 PM,32.0,30.2,93,30.20,10.0,Calm,Calm,-,0.00,,Clear,0,2013-10-25 03:30:00
11:50 PM,32.0,30.2,93,30.20,10.0,Calm,Calm,-,0.00,,Clear,0,2013-10-25 03:50:00